sensor_id;sensor_type;location;lat;lon;timestamp;P1;durP1;ratioP1;P2;durP2;ratioP2
45764;SDS011;31474;45.332;10.230;2023-03-14T00:00:53;18.80;;;9.98;;
45764;SDS011;31474;45.332;10.230;2023-03-14T00:03:19;13.32;;;8.70;;
45764;SDS011;31474;45.332;10.230;2023-03-14T00:05:45;16.77;;;10.02;;
45764;SDS011;31474;45.332;10.230;2023-03-14T00:08:10;18.73;;;12.20;;
45764;SDS011;31474;45.332;10.230;2023-03-14T00:10:36;14.52;;;10.45;;
45764;SDS011;31474;45.332;10.230;2023-03-14T00:13:02;16.38;;;10.88;;
45764;SDS011;31474;45.332;10.230;2023-03-14T00:15:28;18.15;;;11.27;;
45764;SDS011;31474;45.332;10.230;2023-03-14T00:17:54;16.48;;;13.18;;
45764;SDS011;31474;45.332;10.230;2023-03-14T00:20:19;16.40;;;11.18;;
45764;SDS011;31474;45.332;10.230;2023-03-14T00:22:45;15.07;;;11.40;;
45764;SDS011;31474;45.332;10.230;2023-03-14T00:25:11;17.70;;;11.88;;
45764;SDS011;31474;45.332;10.230;2023-03-14T00:27:37;20.50;;;12.45;;
45764;SDS011;31474;45.332;10.230;2023-03-14T00:30:04;22.27;;;11.63;;
45764;SDS011;31474;45.332;10.230;2023-03-14T00:32:30;16.05;;;12.13;;
45764;SDS011;31474;45.332;10.230;2023-03-14T00:34:56;17.10;;;11.52;;
45764;SDS011;31474;45.332;10.230;2023-03-14T00:37:22;14.77;;;11.35;;
45764;SDS011;31474;45.332;10.230;2023-03-14T00:39:47;13.93;;;11.55;;
45764;SDS011;31474;45.332;10.230;2023-03-14T00:42:13;15.73;;;12.43;;
45764;SDS011;31474;45.332;10.230;2023-03-14T00:44:39;22.88;;;13.20;;
45764;SDS011;31474;45.332;10.230;2023-03-14T00:47:04;19.70;;;13.80;;
45764;SDS011;31474;45.332;10.230;2023-03-14T00:49:30;16.77;;;13.23;;
45764;SDS011;31474;45.332;10.230;2023-03-14T00:51:56;19.35;;;11.50;;
45764;SDS011;31474;45.332;10.230;2023-03-14T00:54:22;12.05;;;10.55;;
45764;SDS011;31474;45.332;10.230;2023-03-14T00:56:48;20.95;;;11.88;;
45764;SDS011;31474;45.332;10.230;2023-03-14T00:59:15;17.48;;;11.52;;
45764;SDS011;31474;45.332;10.230;2023-03-14T01:01:41;19.35;;;12.27;;
45764;SDS011;31474;45.332;10.230;2023-03-14T01:04:07;14.73;;;11.88;;
45764;SDS011;31474;45.332;10.230;2023-03-14T01:06:32;24.27;;;14.27;;
45764;SDS011;31474;45.332;10.230;2023-03-14T01:08:58;15.25;;;11.60;;
45764;SDS011;31474;45.332;10.230;2023-03-14T01:11:28;20.13;;;12.95;;
45764;SDS011;31474;45.332;10.230;2023-03-14T01:13:56;22.92;;;14.30;;
45764;SDS011;31474;45.332;10.230;2023-03-14T01:16:23;21.35;;;13.38;;
45764;SDS011;31474;45.332;10.230;2023-03-14T01:18:50;19.98;;;14.57;;
45764;SDS011;31474;45.332;10.230;2023-03-14T01:23:42;16.48;;;12.85;;
45764;SDS011;31474;45.332;10.230;2023-03-14T01:26:09;19.48;;;14.43;;
45764;SDS011;31474;45.332;10.230;2023-03-14T01:28:36;18.67;;;13.60;;
45764;SDS011;31474;45.332;10.230;2023-03-14T01:31:03;17.70;;;13.52;;
45764;SDS011;31474;45.332;10.230;2023-03-14T01:33:29;19.98;;;13.00;;
45764;SDS011;31474;45.332;10.230;2023-03-14T01:35:55;16.25;;;13.27;;
45764;SDS011;31474;45.332;10.230;2023-03-14T01:38:21;17.65;;;13.63;;
45764;SDS011;31474;45.332;10.230;2023-03-14T01:40:46;21.55;;;13.57;;
45764;SDS011;31474;45.332;10.230;2023-03-14T01:43:13;16.35;;;12.48;;
45764;SDS011;31474;45.332;10.230;2023-03-14T01:49:17;16.10;;;11.70;;
45764;SDS011;31474;45.332;10.230;2023-03-14T01:51:40;17.70;;;10.43;;
45764;SDS011;31474;45.332;10.230;2023-03-14T01:54:20;17.75;;;11.90;;
45764;SDS011;31474;45.332;10.230;2023-03-14T01:57:16;20.10;;;11.32;;
45764;SDS011;31474;45.332;10.230;2023-03-14T01:59:59;13.00;;;10.93;;
45764;SDS011;31474;45.332;10.230;2023-03-14T02:02:36;17.50;;;11.05;;
45764;SDS011;31474;45.332;10.230;2023-03-14T02:05:02;16.02;;;11.80;;
45764;SDS011;31474;45.332;10.230;2023-03-14T02:09:57;15.85;;;10.35;;
45764;SDS011;31474;45.332;10.230;2023-03-14T02:12:24;19.25;;;11.90;;
45764;SDS011;31474;45.332;10.230;2023-03-14T02:14:50;18.58;;;10.27;;
45764;SDS011;31474;45.332;10.230;2023-03-14T02:17:17;14.95;;;10.57;;
45764;SDS011;31474;45.332;10.230;2023-03-14T02:22:25;15.98;;;11.27;;
45764;SDS011;31474;45.332;10.230;2023-03-14T02:24:55;17.33;;;11.75;;
45764;SDS011;31474;45.332;10.230;2023-03-14T02:27:25;14.70;;;10.02;;
45764;SDS011;31474;45.332;10.230;2023-03-14T02:29:56;15.75;;;9.65;;
45764;SDS011;31474;45.332;10.230;2023-03-14T02:32:25;13.30;;;9.00;;
45764;SDS011;31474;45.332;10.230;2023-03-14T02:34:53;16.88;;;9.35;;
45764;SDS011;31474;45.332;10.230;2023-03-14T02:37:22;14.60;;;9.18;;
45764;SDS011;31474;45.332;10.230;2023-03-14T02:39:52;12.18;;;8.68;;
45764;SDS011;31474;45.332;10.230;2023-03-14T02:42:17;16.05;;;9.18;;
45764;SDS011;31474;45.332;10.230;2023-03-14T02:44:54;16.88;;;9.63;;
45764;SDS011;31474;45.332;10.230;2023-03-14T02:47:28;15.48;;;8.40;;
45764;SDS011;31474;45.332;10.230;2023-03-14T02:49:59;12.57;;;8.20;;
45764;SDS011;31474;45.332;10.230;2023-03-14T02:52:29;15.05;;;9.77;;
45764;SDS011;31474;45.332;10.230;2023-03-14T02:54:54;13.88;;;8.38;;
45764;SDS011;31474;45.332;10.230;2023-03-14T02:57:20;13.93;;;7.65;;
45764;SDS011;31474;45.332;10.230;2023-03-14T02:59:45;18.20;;;8.77;;
45764;SDS011;31474;45.332;10.230;2023-03-14T03:02:11;10.43;;;7.57;;
45764;SDS011;31474;45.332;10.230;2023-03-14T03:04:37;14.60;;;7.72;;
45764;SDS011;31474;45.332;10.230;2023-03-14T03:07:02;15.50;;;7.13;;
45764;SDS011;31474;45.332;10.230;2023-03-14T03:09:28;9.60;;;6.60;;
45764;SDS011;31474;45.332;10.230;2023-03-14T03:11:53;11.40;;;8.75;;
45764;SDS011;31474;45.332;10.230;2023-03-14T03:14:19;11.30;;;6.95;;
45764;SDS011;31474;45.332;10.230;2023-03-14T03:16:45;13.35;;;8.77;;
45764;SDS011;31474;45.332;10.230;2023-03-14T03:19:10;14.20;;;9.75;;
45764;SDS011;31474;45.332;10.230;2023-03-14T03:21:38;11.48;;;7.97;;
45764;SDS011;31474;45.332;10.230;2023-03-14T03:24:04;15.05;;;8.20;;
45764;SDS011;31474;45.332;10.230;2023-03-14T03:26:30;13.65;;;8.05;;
45764;SDS011;31474;45.332;10.230;2023-03-14T03:28:55;14.02;;;8.65;;
45764;SDS011;31474;45.332;10.230;2023-03-14T03:31:21;13.40;;;9.00;;
45764;SDS011;31474;45.332;10.230;2023-03-14T03:33:47;11.82;;;8.07;;
45764;SDS011;31474;45.332;10.230;2023-03-14T03:36:12;17.52;;;7.38;;
45764;SDS011;31474;45.332;10.230;2023-03-14T03:38:38;11.00;;;8.57;;
45764;SDS011;31474;45.332;10.230;2023-03-14T03:41:04;9.68;;;7.30;;
45764;SDS011;31474;45.332;10.230;2023-03-14T03:43:31;14.65;;;8.05;;
45764;SDS011;31474;45.332;10.230;2023-03-14T03:45:57;11.60;;;8.32;;
45764;SDS011;31474;45.332;10.230;2023-03-14T03:48:22;16.67;;;7.95;;
45764;SDS011;31474;45.332;10.230;2023-03-14T03:50:48;11.57;;;8.10;;
45764;SDS011;31474;45.332;10.230;2023-03-14T03:53:14;12.30;;;8.60;;
45764;SDS011;31474;45.332;10.230;2023-03-14T03:55:42;9.57;;;7.50;;
45764;SDS011;31474;45.332;10.230;2023-03-14T03:58:08;11.18;;;8.48;;
45764;SDS011;31474;45.332;10.230;2023-03-14T04:00:34;14.02;;;8.00;;
45764;SDS011;31474;45.332;10.230;2023-03-14T04:02:59;10.07;;;8.05;;
45764;SDS011;31474;45.332;10.230;2023-03-14T04:05:25;11.98;;;8.30;;
45764;SDS011;31474;45.332;10.230;2023-03-14T04:07:51;10.07;;;7.65;;
45764;SDS011;31474;45.332;10.230;2023-03-14T04:10:17;12.55;;;7.55;;
45764;SDS011;31474;45.332;10.230;2023-03-14T04:12:42;16.42;;;9.27;;
45764;SDS011;31474;45.332;10.230;2023-03-14T04:15:08;10.05;;;7.72;;
45764;SDS011;31474;45.332;10.230;2023-03-14T04:17:34;16.75;;;9.35;;
45764;SDS011;31474;45.332;10.230;2023-03-14T04:20:00;11.57;;;8.50;;
45764;SDS011;31474;45.332;10.230;2023-03-14T04:22:25;9.20;;;7.35;;
45764;SDS011;31474;45.332;10.230;2023-03-14T04:24:51;12.90;;;8.98;;
45764;SDS011;31474;45.332;10.230;2023-03-14T04:27:17;9.18;;;6.97;;
45764;SDS011;31474;45.332;10.230;2023-03-14T04:29:42;11.40;;;7.57;;
45764;SDS011;31474;45.332;10.230;2023-03-14T04:32:08;9.50;;;6.72;;
45764;SDS011;31474;45.332;10.230;2023-03-14T04:34:34;14.73;;;7.22;;
45764;SDS011;31474;45.332;10.230;2023-03-14T04:36:59;11.88;;;7.32;;
45764;SDS011;31474;45.332;10.230;2023-03-14T04:39:25;8.73;;;6.25;;
45764;SDS011;31474;45.332;10.230;2023-03-14T04:41:51;10.82;;;6.53;;
45764;SDS011;31474;45.332;10.230;2023-03-14T04:44:17;13.43;;;6.82;;
45764;SDS011;31474;45.332;10.230;2023-03-14T04:46:43;13.15;;;7.38;;
45764;SDS011;31474;45.332;10.230;2023-03-14T04:49:08;14.50;;;8.07;;
45764;SDS011;31474;45.332;10.230;2023-03-14T04:51:34;12.25;;;7.00;;
45764;SDS011;31474;45.332;10.230;2023-03-14T04:54:00;11.18;;;7.35;;
45764;SDS011;31474;45.332;10.230;2023-03-14T04:56:25;12.30;;;7.63;;
45764;SDS011;31474;45.332;10.230;2023-03-14T04:58:52;13.32;;;7.20;;
45764;SDS011;31474;45.332;10.230;2023-03-14T05:01:18;10.88;;;6.72;;
45764;SDS011;31474;45.332;10.230;2023-03-14T05:03:44;11.68;;;6.55;;
45764;SDS011;31474;45.332;10.230;2023-03-14T05:06:09;9.73;;;6.88;;
45764;SDS011;31474;45.332;10.230;2023-03-14T05:08:35;8.13;;;6.72;;
45764;SDS011;31474;45.332;10.230;2023-03-14T05:11:01;13.25;;;7.63;;
45764;SDS011;31474;45.332;10.230;2023-03-14T05:13:27;10.77;;;7.30;;
45764;SDS011;31474;45.332;10.230;2023-03-14T05:15:53;11.73;;;8.20;;
45764;SDS011;31474;45.332;10.230;2023-03-14T05:18:27;14.18;;;7.30;;
45764;SDS011;31474;45.332;10.230;2023-03-14T05:20:53;11.10;;;7.53;;
45764;SDS011;31474;45.332;10.230;2023-03-14T05:23:18;13.25;;;8.55;;
45764;SDS011;31474;45.332;10.230;2023-03-14T05:25:44;15.00;;;8.32;;
45764;SDS011;31474;45.332;10.230;2023-03-14T05:28:10;11.70;;;7.53;;
45764;SDS011;31474;45.332;10.230;2023-03-14T05:30:35;12.52;;;8.25;;
45764;SDS011;31474;45.332;10.230;2023-03-14T05:33:01;14.85;;;8.55;;
45764;SDS011;31474;45.332;10.230;2023-03-14T05:35:27;11.57;;;7.25;;
45764;SDS011;31474;45.332;10.230;2023-03-14T05:37:52;12.30;;;7.72;;
45764;SDS011;31474;45.332;10.230;2023-03-14T05:40:18;10.07;;;7.80;;
45764;SDS011;31474;45.332;10.230;2023-03-14T05:42:44;12.30;;;9.15;;
45764;SDS011;31474;45.332;10.230;2023-03-14T05:45:09;12.77;;;8.20;;
45764;SDS011;31474;45.332;10.230;2023-03-14T05:47:35;13.55;;;8.48;;
45764;SDS011;31474;45.332;10.230;2023-03-14T05:50:01;11.35;;;7.80;;
45764;SDS011;31474;45.332;10.230;2023-03-14T05:52:27;11.57;;;8.38;;
45764;SDS011;31474;45.332;10.230;2023-03-14T05:54:52;15.95;;;9.35;;
45764;SDS011;31474;45.332;10.230;2023-03-14T05:57:18;15.73;;;9.20;;
45764;SDS011;31474;45.332;10.230;2023-03-14T05:59:43;19.20;;;10.00;;
45764;SDS011;31474;45.332;10.230;2023-03-14T06:02:09;15.13;;;8.27;;
45764;SDS011;31474;45.332;10.230;2023-03-14T06:04:35;14.45;;;8.23;;
45764;SDS011;31474;45.332;10.230;2023-03-14T06:07:00;11.88;;;9.45;;
45764;SDS011;31474;45.332;10.230;2023-03-14T06:09:26;12.98;;;8.60;;
45764;SDS011;31474;45.332;10.230;2023-03-14T06:11:52;15.35;;;8.93;;
45764;SDS011;31474;45.332;10.230;2023-03-14T06:14:17;13.57;;;8.77;;
45764;SDS011;31474;45.332;10.230;2023-03-14T06:16:43;11.40;;;9.20;;
45764;SDS011;31474;45.332;10.230;2023-03-14T06:19:09;16.42;;;9.05;;
45764;SDS011;31474;45.332;10.230;2023-03-14T06:21:35;12.98;;;8.70;;
45764;SDS011;31474;45.332;10.230;2023-03-14T06:24:01;14.23;;;8.73;;
45764;SDS011;31474;45.332;10.230;2023-03-14T06:26:26;19.65;;;10.60;;
45764;SDS011;31474;45.332;10.230;2023-03-14T06:28:52;12.32;;;9.25;;
45764;SDS011;31474;45.332;10.230;2023-03-14T06:31:18;13.63;;;8.52;;
45764;SDS011;31474;45.332;10.230;2023-03-14T06:33:44;13.20;;;9.10;;
45764;SDS011;31474;45.332;10.230;2023-03-14T06:36:09;14.02;;;9.27;;
45764;SDS011;31474;45.332;10.230;2023-03-14T06:38:35;18.98;;;11.10;;
45764;SDS011;31474;45.332;10.230;2023-03-14T06:41:04;15.05;;;8.82;;
45764;SDS011;31474;45.332;10.230;2023-03-14T06:43:31;17.92;;;9.90;;
45764;SDS011;31474;45.332;10.230;2023-03-14T06:45:57;15.07;;;9.65;;
45764;SDS011;31474;45.332;10.230;2023-03-14T06:48:23;16.83;;;10.60;;
45764;SDS011;31474;45.332;10.230;2023-03-14T06:50:48;13.27;;;9.38;;
45764;SDS011;31474;45.332;10.230;2023-03-14T06:53:14;13.15;;;9.38;;
45764;SDS011;31474;45.332;10.230;2023-03-14T06:55:40;19.02;;;10.25;;
45764;SDS011;31474;45.332;10.230;2023-03-14T06:58:06;15.75;;;11.27;;
45764;SDS011;31474;45.332;10.230;2023-03-14T07:00:33;14.65;;;8.90;;
45764;SDS011;31474;45.332;10.230;2023-03-14T07:02:59;13.82;;;9.45;;
45764;SDS011;31474;45.332;10.230;2023-03-14T07:05:24;14.73;;;9.13;;
45764;SDS011;31474;45.332;10.230;2023-03-14T07:07:50;12.50;;;9.02;;
45764;SDS011;31474;45.332;10.230;2023-03-14T07:10:16;15.30;;;9.70;;
45764;SDS011;31474;45.332;10.230;2023-03-14T07:12:41;12.80;;;8.70;;
45764;SDS011;31474;45.332;10.230;2023-03-14T07:15:07;15.88;;;8.75;;
45764;SDS011;31474;45.332;10.230;2023-03-14T07:17:33;12.70;;;8.70;;
45764;SDS011;31474;45.332;10.230;2023-03-14T07:19:59;13.77;;;8.18;;
45764;SDS011;31474;45.332;10.230;2023-03-14T07:22:25;11.07;;;7.85;;
45764;SDS011;31474;45.332;10.230;2023-03-14T07:24:50;14.75;;;7.80;;
45764;SDS011;31474;45.332;10.230;2023-03-14T07:27:16;12.43;;;8.25;;
45764;SDS011;31474;45.332;10.230;2023-03-14T07:29:42;15.40;;;8.60;;
45764;SDS011;31474;45.332;10.230;2023-03-14T07:32:07;13.57;;;7.85;;
45764;SDS011;31474;45.332;10.230;2023-03-14T07:34:33;16.48;;;9.20;;
45764;SDS011;31474;45.332;10.230;2023-03-14T07:36:59;16.02;;;9.70;;
45764;SDS011;31474;45.332;10.230;2023-03-14T07:39:24;12.18;;;8.50;;
45764;SDS011;31474;45.332;10.230;2023-03-14T07:41:50;13.13;;;8.93;;
45764;SDS011;31474;45.332;10.230;2023-03-14T07:44:16;15.05;;;9.50;;
45764;SDS011;31474;45.332;10.230;2023-03-14T07:46:41;13.25;;;8.30;;
45764;SDS011;31474;45.332;10.230;2023-03-14T07:49:07;14.02;;;8.20;;
45764;SDS011;31474;45.332;10.230;2023-03-14T07:51:33;19.08;;;9.95;;
45764;SDS011;31474;45.332;10.230;2023-03-14T07:53:58;12.70;;;7.82;;
45764;SDS011;31474;45.332;10.230;2023-03-14T07:56:24;15.93;;;9.13;;
45764;SDS011;31474;45.332;10.230;2023-03-14T07:58:49;13.35;;;8.68;;
45764;SDS011;31474;45.332;10.230;2023-03-14T08:01:15;18.02;;;9.35;;
45764;SDS011;31474;45.332;10.230;2023-03-14T08:03:41;16.38;;;8.45;;
45764;SDS011;31474;45.332;10.230;2023-03-14T08:06:06;17.13;;;8.63;;
45764;SDS011;31474;45.332;10.230;2023-03-14T08:08:32;12.18;;;8.57;;
45764;SDS011;31474;45.332;10.230;2023-03-14T08:11:05;12.18;;;8.98;;
45764;SDS011;31474;45.332;10.230;2023-03-14T08:13:33;16.75;;;9.60;;
45764;SDS011;31474;45.332;10.230;2023-03-14T08:16:00;16.88;;;9.40;;
45764;SDS011;31474;45.332;10.230;2023-03-14T08:18:25;13.50;;;7.93;;
45764;SDS011;31474;45.332;10.230;2023-03-14T08:20:51;14.60;;;8.50;;
45764;SDS011;31474;45.332;10.230;2023-03-14T08:23:17;18.98;;;9.25;;
45764;SDS011;31474;45.332;10.230;2023-03-14T08:25:43;13.18;;;8.73;;
45764;SDS011;31474;45.332;10.230;2023-03-14T08:28:08;13.32;;;7.72;;
45764;SDS011;31474;45.332;10.230;2023-03-14T08:30:34;16.23;;;8.15;;
45764;SDS011;31474;45.332;10.230;2023-03-14T08:32:59;13.85;;;9.05;;
45764;SDS011;31474;45.332;10.230;2023-03-14T08:35:26;12.80;;;9.45;;
45764;SDS011;31474;45.332;10.230;2023-03-14T08:37:52;11.93;;;7.82;;
45764;SDS011;31474;45.332;10.230;2023-03-14T08:40:18;12.32;;;7.97;;
45764;SDS011;31474;45.332;10.230;2023-03-14T08:42:44;11.88;;;7.78;;
45764;SDS011;31474;45.332;10.230;2023-03-14T08:45:11;14.85;;;7.93;;
45764;SDS011;31474;45.332;10.230;2023-03-14T08:47:38;10.25;;;8.35;;
45764;SDS011;31474;45.332;10.230;2023-03-14T08:50:04;16.02;;;8.68;;
45764;SDS011;31474;45.332;10.230;2023-03-14T08:52:38;13.18;;;8.65;;
45764;SDS011;31474;45.332;10.230;2023-03-14T08:55:05;12.27;;;8.85;;
45764;SDS011;31474;45.332;10.230;2023-03-14T08:57:32;17.85;;;9.35;;
45764;SDS011;31474;45.332;10.230;2023-03-14T08:59:57;14.80;;;9.30;;
45764;SDS011;31474;45.332;10.230;2023-03-14T09:02:23;18.02;;;9.32;;
45764;SDS011;31474;45.332;10.230;2023-03-14T09:04:51;19.25;;;10.68;;
45764;SDS011;31474;45.332;10.230;2023-03-14T09:07:17;32.75;;;15.48;;
45764;SDS011;31474;45.332;10.230;2023-03-14T09:09:43;23.88;;;13.13;;
45764;SDS011;31474;45.332;10.230;2023-03-14T09:12:08;14.85;;;8.85;;
45764;SDS011;31474;45.332;10.230;2023-03-14T09:14:34;26.15;;;12.77;;
45764;SDS011;31474;45.332;10.230;2023-03-14T09:17:00;20.48;;;9.88;;
45764;SDS011;31474;45.332;10.230;2023-03-14T09:19:25;13.93;;;8.60;;
45764;SDS011;31474;45.332;10.230;2023-03-14T09:21:51;11.50;;;8.23;;
45764;SDS011;31474;45.332;10.230;2023-03-14T09:24:17;11.82;;;7.95;;
45764;SDS011;31474;45.332;10.230;2023-03-14T09:26:42;11.52;;;8.05;;
45764;SDS011;31474;45.332;10.230;2023-03-14T09:29:08;18.85;;;9.32;;
45764;SDS011;31474;45.332;10.230;2023-03-14T09:31:34;15.02;;;9.32;;
45764;SDS011;31474;45.332;10.230;2023-03-14T09:34:00;11.00;;;8.10;;
45764;SDS011;31474;45.332;10.230;2023-03-14T09:36:26;15.63;;;9.23;;
45764;SDS011;31474;45.332;10.230;2023-03-14T09:38:52;11.80;;;8.48;;
45764;SDS011;31474;45.332;10.230;2023-03-14T09:41:20;14.70;;;8.30;;
45764;SDS011;31474;45.332;10.230;2023-03-14T09:43:49;16.05;;;7.97;;
45764;SDS011;31474;45.332;10.230;2023-03-14T09:46:29;14.15;;;7.68;;
45764;SDS011;31474;45.332;10.230;2023-03-14T09:48:56;18.92;;;9.02;;
45764;SDS011;31474;45.332;10.230;2023-03-14T09:51:22;11.95;;;7.90;;
45764;SDS011;31474;45.332;10.230;2023-03-14T09:53:49;14.23;;;7.45;;
45764;SDS011;31474;45.332;10.230;2023-03-14T09:56:26;9.80;;;7.13;;
45764;SDS011;31474;45.332;10.230;2023-03-14T09:58:58;13.25;;;7.88;;
45764;SDS011;31474;45.332;10.230;2023-03-14T10:01:30;12.77;;;7.47;;
45764;SDS011;31474;45.332;10.230;2023-03-14T10:03:59;13.40;;;9.10;;
45764;SDS011;31474;45.332;10.230;2023-03-14T10:06:29;13.10;;;6.90;;
45764;SDS011;31474;45.332;10.230;2023-03-14T10:08:56;14.80;;;7.60;;
45764;SDS011;31474;45.332;10.230;2023-03-14T10:11:22;15.27;;;8.82;;
45764;SDS011;31474;45.332;10.230;2023-03-14T10:16:32;15.70;;;8.27;;
45764;SDS011;31474;45.332;10.230;2023-03-14T10:19:03;11.57;;;7.30;;
45764;SDS011;31474;45.332;10.230;2023-03-14T10:21:35;12.80;;;8.35;;
45764;SDS011;31474;45.332;10.230;2023-03-14T10:26:49;18.17;;;9.20;;
45764;SDS011;31474;45.332;10.230;2023-03-14T10:29:17;12.63;;;9.23;;
45764;SDS011;31474;45.332;10.230;2023-03-14T10:31:59;16.35;;;8.40;;
45764;SDS011;31474;45.332;10.230;2023-03-14T10:34:28;14.45;;;7.63;;
45764;SDS011;31474;45.332;10.230;2023-03-14T10:37:05;14.98;;;8.27;;
45764;SDS011;31474;45.332;10.230;2023-03-14T10:39:41;13.98;;;7.80;;
45764;SDS011;31474;45.332;10.230;2023-03-14T10:42:23;13.88;;;7.03;;
45764;SDS011;31474;45.332;10.230;2023-03-14T10:44:53;9.52;;;6.60;;
45764;SDS011;31474;45.332;10.230;2023-03-14T10:47:22;12.32;;;7.78;;
45764;SDS011;31474;45.332;10.230;2023-03-14T10:49:50;11.43;;;7.45;;
45764;SDS011;31474;45.332;10.230;2023-03-14T10:52:20;16.88;;;7.40;;
45764;SDS011;31474;45.332;10.230;2023-03-14T10:54:55;10.68;;;6.85;;
45764;SDS011;31474;45.332;10.230;2023-03-14T10:57:23;11.88;;;7.10;;
45764;SDS011;31474;45.332;10.230;2023-03-14T10:59:50;11.45;;;7.43;;
45764;SDS011;31474;45.332;10.230;2023-03-14T11:05:29;10.40;;;6.35;;
45764;SDS011;31474;45.332;10.230;2023-03-14T11:08:06;9.40;;;5.88;;
45764;SDS011;31474;45.332;10.230;2023-03-14T11:10:38;8.65;;;5.65;;
45764;SDS011;31474;45.332;10.230;2023-03-14T11:13:27;9.27;;;5.80;;
45764;SDS011;31474;45.332;10.230;2023-03-14T11:16:16;12.50;;;6.70;;
45764;SDS011;31474;45.332;10.230;2023-03-14T11:21:59;10.35;;;6.10;;
45764;SDS011;31474;45.332;10.230;2023-03-14T11:29:41;9.05;;;6.38;;
45764;SDS011;31474;45.332;10.230;2023-03-14T11:35:20;10.32;;;6.75;;
45764;SDS011;31474;45.332;10.230;2023-03-14T11:40:54;9.20;;;6.22;;
45764;SDS011;31474;45.332;10.230;2023-03-14T11:43:28;8.40;;;5.55;;
45764;SDS011;31474;45.332;10.230;2023-03-14T11:46:10;11.45;;;6.35;;
45764;SDS011;31474;45.332;10.230;2023-03-14T11:48:56;10.80;;;5.47;;
45764;SDS011;31474;45.332;10.230;2023-03-14T11:51:43;8.82;;;5.97;;
45764;SDS011;31474;45.332;10.230;2023-03-14T11:54:18;10.50;;;5.88;;
45764;SDS011;31474;45.332;10.230;2023-03-14T11:56:58;9.90;;;6.03;;
45764;SDS011;31474;45.332;10.230;2023-03-14T11:59:32;10.45;;;5.57;;
45764;SDS011;31474;45.332;10.230;2023-03-14T12:02:17;12.35;;;5.80;;
45764;SDS011;31474;45.332;10.230;2023-03-14T12:07:23;11.63;;;5.40;;
45764;SDS011;31474;45.332;10.230;2023-03-14T12:10:00;8.05;;;5.32;;
45764;SDS011;31474;45.332;10.230;2023-03-14T12:12:27;7.38;;;5.25;;
45764;SDS011;31474;45.332;10.230;2023-03-14T12:14:59;8.95;;;5.60;;
45764;SDS011;31474;45.332;10.230;2023-03-14T12:17:33;6.28;;;5.15;;
45764;SDS011;31474;45.332;10.230;2023-03-14T12:20:04;7.90;;;5.10;;
45764;SDS011;31474;45.332;10.230;2023-03-14T12:22:43;6.65;;;5.40;;
45764;SDS011;31474;45.332;10.230;2023-03-14T12:25:23;8.80;;;5.82;;
45764;SDS011;31474;45.332;10.230;2023-03-14T12:30:29;8.88;;;5.53;;
45764;SDS011;31474;45.332;10.230;2023-03-14T12:35:46;11.40;;;7.05;;
45764;SDS011;31474;45.332;10.230;2023-03-14T12:43:41;10.00;;;5.90;;
45764;SDS011;31474;45.332;10.230;2023-03-14T12:46:21;8.65;;;5.82;;
45764;SDS011;31474;45.332;10.230;2023-03-14T12:59:58;9.18;;;5.32;;
45764;SDS011;31474;45.332;10.230;2023-03-14T13:02:29;10.88;;;5.78;;
45764;SDS011;31474;45.332;10.230;2023-03-14T13:05:13;9.40;;;6.50;;
45764;SDS011;31474;45.332;10.230;2023-03-14T13:10:17;7.43;;;5.43;;
45764;SDS011;31474;45.332;10.230;2023-03-14T13:21:13;10.05;;;6.90;;
45764;SDS011;31474;45.332;10.230;2023-03-14T13:26:31;11.13;;;7.40;;
45764;SDS011;31474;45.332;10.230;2023-03-14T13:31:48;8.07;;;6.55;;
45764;SDS011;31474;45.332;10.230;2023-03-14T13:34:17;8.90;;;6.60;;
45764;SDS011;31474;45.332;10.230;2023-03-14T13:36:43;10.75;;;7.18;;
45764;SDS011;31474;45.332;10.230;2023-03-14T13:39:10;10.93;;;7.78;;
45764;SDS011;31474;45.332;10.230;2023-03-14T13:41:39;8.10;;;6.47;;
45764;SDS011;31474;45.332;10.230;2023-03-14T13:44:07;11.32;;;6.97;;
45764;SDS011;31474;45.332;10.230;2023-03-14T13:46:48;10.63;;;6.60;;
45764;SDS011;31474;45.332;10.230;2023-03-14T13:49:17;8.18;;;6.63;;
45764;SDS011;31474;45.332;10.230;2023-03-14T13:51:49;8.10;;;5.90;;
45764;SDS011;31474;45.332;10.230;2023-03-14T13:54:16;9.10;;;6.82;;
45764;SDS011;31474;45.332;10.230;2023-03-14T13:56:44;10.80;;;6.43;;
45764;SDS011;31474;45.332;10.230;2023-03-14T13:59:23;9.07;;;5.95;;
45764;SDS011;31474;45.332;10.230;2023-03-14T14:01:50;7.88;;;5.75;;
45764;SDS011;31474;45.332;10.230;2023-03-14T14:04:18;9.80;;;5.68;;
45764;SDS011;31474;45.332;10.230;2023-03-14T14:06:50;10.88;;;5.45;;
45764;SDS011;31474;45.332;10.230;2023-03-14T14:09:21;12.48;;;6.93;;
45764;SDS011;31474;45.332;10.230;2023-03-14T14:11:59;9.27;;;6.50;;
45764;SDS011;31474;45.332;10.230;2023-03-14T14:14:34;11.10;;;7.15;;
45764;SDS011;31474;45.332;10.230;2023-03-14T14:17:05;9.77;;;6.70;;
45764;SDS011;31474;45.332;10.230;2023-03-14T14:19:33;9.98;;;6.63;;
45764;SDS011;31474;45.332;10.230;2023-03-14T14:22:00;8.30;;;6.40;;
45764;SDS011;31474;45.332;10.230;2023-03-14T14:24:30;12.00;;;7.07;;
45764;SDS011;31474;45.332;10.230;2023-03-14T14:29:44;11.32;;;7.55;;
45764;SDS011;31474;45.332;10.230;2023-03-14T14:32:21;10.93;;;7.45;;
45764;SDS011;31474;45.332;10.230;2023-03-14T14:34:48;9.00;;;7.20;;
45764;SDS011;31474;45.332;10.230;2023-03-14T14:37:25;11.85;;;7.85;;
45764;SDS011;31474;45.332;10.230;2023-03-14T14:40:00;11.25;;;7.38;;
45764;SDS011;31474;45.332;10.230;2023-03-14T14:42:32;12.70;;;7.70;;
45764;SDS011;31474;45.332;10.230;2023-03-14T14:44:58;8.30;;;6.93;;
45764;SDS011;31474;45.332;10.230;2023-03-14T14:47:28;12.93;;;7.70;;
45764;SDS011;31474;45.332;10.230;2023-03-14T14:49:55;12.07;;;7.68;;
45764;SDS011;31474;45.332;10.230;2023-03-14T14:52:37;8.68;;;7.68;;
45764;SDS011;31474;45.332;10.230;2023-03-14T14:55:18;15.90;;;7.32;;
45764;SDS011;31474;45.332;10.230;2023-03-14T15:00:19;10.75;;;7.63;;
45764;SDS011;31474;45.332;10.230;2023-03-14T15:02:47;7.97;;;6.55;;
45764;SDS011;31474;45.332;10.230;2023-03-14T15:07:40;11.40;;;7.57;;
45764;SDS011;31474;45.332;10.230;2023-03-14T15:10:08;9.82;;;7.25;;
45764;SDS011;31474;45.332;10.230;2023-03-14T15:12:36;10.43;;;8.00;;
45764;SDS011;31474;45.332;10.230;2023-03-14T15:15:01;11.75;;;7.95;;
45764;SDS011;31474;45.332;10.230;2023-03-14T15:17:27;10.55;;;7.32;;
45764;SDS011;31474;45.332;10.230;2023-03-14T15:19:53;10.88;;;8.25;;
45764;SDS011;31474;45.332;10.230;2023-03-14T15:22:20;13.52;;;8.25;;
45764;SDS011;31474;45.332;10.230;2023-03-14T15:24:46;11.30;;;8.25;;
45764;SDS011;31474;45.332;10.230;2023-03-14T15:27:15;10.18;;;8.18;;
45764;SDS011;31474;45.332;10.230;2023-03-14T15:29:42;12.70;;;8.15;;
45764;SDS011;31474;45.332;10.230;2023-03-14T15:32:11;11.20;;;8.20;;
45764;SDS011;31474;45.332;10.230;2023-03-14T15:34:39;10.73;;;9.13;;
45764;SDS011;31474;45.332;10.230;2023-03-14T15:37:05;10.68;;;8.38;;
45764;SDS011;31474;45.332;10.230;2023-03-14T15:39:37;10.63;;;8.68;;
45764;SDS011;31474;45.332;10.230;2023-03-14T15:42:04;11.02;;;8.88;;
45764;SDS011;31474;45.332;10.230;2023-03-14T15:44:30;10.63;;;8.80;;
45764;SDS011;31474;45.332;10.230;2023-03-14T15:46:56;15.73;;;9.40;;
45764;SDS011;31474;45.332;10.230;2023-03-14T15:49:21;12.68;;;9.32;;